Time;durP1;ratioP1;P1;durP2;ratioP2;P2;SDS_P1;SDS_P2;PMS_P1;PMS_P2;Temp;Humidity;BMP_temperature;BMP_pressure;BME280_temperature;BME280_humidity;BME280_pressure;Samples;Min_cycle;Max_cycle;Signal;HPM_P1;HPM_P2
2024/01/01 00:01:28;;;;;;;19.75;11.45;;;;;;;6.05;55.65;100482.59;1797853;80;21284;-93
2024/01/01 00:04:35;;;;;;;25.45;12.65;;;;;;;6.06;56.10;100483.80;1797727;80;21288;-92
2024/01/01 00:07:41;;;;;;;25.32;12.75;;;;;;;6.11;56.07;100483.38;1798652;79;21363;-94
2024/01/01 00:10:47;;;;;;;24.92;11.90;;;;;;;6.21;55.68;100487.44;1799144;80;21193;-93
2024/01/01 00:13:54;;;;;;;21.20;11.78;;;;;;;6.32;55.13;100481.37;1799181;80;21292;-93
2024/01/01 00:17:02;;;;;;;30.60;15.63;;;;;;;6.29;55.05;100480.28;1799683;80;21312;-91
2024/01/01 00:20:10;;;;;;;34.78;15.23;;;;;;;6.29;54.86;100488.44;1799425;80;21236;-93
2024/01/01 00:23:19;;;;;;;32.93;11.78;;;;;;;6.11;54.78;100494.23;1801450;80;21165;-91
2024/01/01 00:26:25;;;;;;;24.10;11.45;;;;;;;5.95;54.61;100492.60;1801184;80;21200;-94
2024/01/01 00:29:32;;;;;;;19.23;11.08;;;;;;;5.86;54.62;100495.13;1799849;80;21359;-92
2024/01/01 00:32:39;;;;;;;24.92;13.93;;;;;;;5.89;54.71;100494.00;1800942;80;21153;-92
2024/01/01 00:35:47;;;;;;;24.77;12.50;;;;;;;5.89;55.11;100492.64;1799937;78;21221;-92
2024/01/01 00:38:53;;;;;;;29.02;15.08;;;;;;;5.96;55.20;100489.73;1800383;80;21146;-92
2024/01/01 00:42:01;;;;;;;36.88;16.07;;;;;;;5.84;55.18;100501.20;1800105;80;21283;-93
2024/01/01 00:45:07;;;;;;;33.58;15.18;;;;;;;5.99;54.98;100495.39;1801347;78;21641;-92
2024/01/01 00:48:15;;;;;;;29.20;13.65;;;;;;;5.89;55.43;100497.56;1800252;80;21268;-93
2024/01/01 00:51:22;;;;;;;19.32;12.15;;;;;;;5.93;55.37;100498.18;1797803;79;21300;-93
2024/01/01 00:54:29;;;;;;;20.37;11.25;;;;;;;5.90;55.29;100488.42;1798838;80;21204;-93
2024/01/01 00:57:35;;;;;;;19.40;10.38;;;;;;;6.13;54.92;100486.81;1799078;80;21296;-94
2024/01/01 01:00:42;;;;;;;23.73;13.53;;;;;;;5.99;54.81;100485.89;1798952;78;21171;-93
2024/01/01 01:03:49;;;;;;;22.30;13.93;;;;;;;5.76;55.24;100483.41;1799170;80;21299;-93
2024/01/01 01:06:56;;;;;;;21.27;11.38;;;;;;;5.83;55.28;100479.61;1807415;79;21263;-93
2024/01/01 01:10:04;;;;;;;25.65;12.88;;;;;;;5.81;55.57;100471.63;1813694;79;21323;-93
2024/01/01 01:13:10;;;;;;;44.50;20.17;;;;;;;5.97;55.15;100480.58;1815620;78;21322;-93
2024/01/01 01:16:17;;;;;;;32.15;15.13;;;;;;;5.84;55.69;100473.21;1815285;79;21917;-93
2024/01/01 01:19:23;;;;;;;24.37;13.08;;;;;;;5.78;55.76;100480.54;1813271;79;21299;-92
2024/01/01 01:22:30;;;;;;;26.60;13.53;;;;;;;5.80;55.83;100479.91;1809178;79;21303;-92
2024/01/01 01:25:36;;;;;;;26.15;12.53;;;;;;;5.86;55.46;100478.84;1809363;79;21323;-93
2024/01/01 01:28:45;;;;;;;19.80;12.05;;;;;;;5.73;55.29;100477.39;1808427;79;21343;-93
2024/01/01 01:31:52;;;;;;;21.35;10.78;;;;;;;5.71;55.14;100473.47;1807685;78;21260;-94
2024/01/01 01:34:59;;;;;;;23.18;10.88;;;;;;;5.64;55.02;100473.16;1808217;79;21168;-94
2024/01/01 01:38:05;;;;;;;23.90;11.12;;;;;;;5.57;55.09;100475.23;1764813;80;21650;-94
2024/01/01 01:41:14;;;;;;;18.52;11.20;;;;;;;5.60;54.96;100465.47;1779386;80;21847;-94
2024/01/01 01:44:23;;;;;;;15.58;9.15;;;;;;;5.45;55.12;100463.63;1780970;80;21299;-93
2024/01/01 01:47:34;;;;;;;21.12;11.10;;;;;;;5.54;54.84;100466.86;1761412;79;21343;-91
2024/01/01 01:50:41;;;;;;;17.30;10.72;;;;;;;5.38;55.11;100465.20;1779148;80;22629;-93
2024/01/01 01:53:48;;;;;;;19.45;11.30;;;;;;;5.46;54.89;100463.13;1776317;81;21331;-93
2024/01/01 01:56:55;;;;;;;26.90;13.80;;;;;;;5.42;54.80;100465.29;1776951;80;21774;-93
2024/01/01 02:00:04;;;;;;;45.80;21.50;;;;;;;5.22;54.93;100471.17;1776632;81;21320;-93
2024/01/01 02:03:10;;;;;;;48.45;21.55;;;;;;;4.97;55.36;100472.98;1777468;81;21287;-92
2024/01/01 02:06:17;;;;;;;21.23;12.00;;;;;;;4.84;55.46;100480.83;1782795;79;21281;-91
2024/01/01 02:09:24;;;;;;;20.75;11.25;;;;;;;4.82;55.34;100477.41;1801782;79;21308;-92
2024/01/01 02:12:31;;;;;;;18.42;10.45;;;;;;;4.66;55.77;100481.13;1801906;79;21272;-92
2024/01/01 02:15:38;;;;;;;24.25;12.37;;;;;;;4.77;55.69;100465.27;1800763;79;22453;-92
2024/01/01 02:18:45;;;;;;;23.47;11.73;;;;;;;4.98;55.23;100462.49;1802032;79;21269;-92
2024/01/01 02:21:51;;;;;;;22.77;11.70;;;;;;;4.85;55.83;100462.25;1801488;79;21855;-92
2024/01/01 02:24:58;;;;;;;18.73;11.03;;;;;;;4.75;56.19;100446.91;1800826;79;21304;-93
2024/01/01 02:28:04;;;;;;;22.07;9.25;;;;;;;4.73;56.17;100449.77;1802536;79;21315;-92
2024/01/01 02:31:10;;;;;;;15.83;9.40;;;;;;;5.02;55.42;100450.38;1800696;79;21347;-92
2024/01/01 02:34:17;;;;;;;19.50;9.95;;;;;;;4.86;55.81;100452.27;1800302;79;21296;-92
2024/01/01 02:37:24;;;;;;;18.77;9.28;;;;;;;4.81;55.78;100450.45;1805813;79;21212;-92
2024/01/01 02:40:31;;;;;;;17.48;9.73;;;;;;;4.82;55.81;100452.16;1806530;79;21291;-92
2024/01/01 02:43:37;;;;;;;17.73;9.03;;;;;;;4.99;55.48;100455.60;1807079;79;22370;-92
2024/01/01 02:46:45;;;;;;;14.23;9.75;;;;;;;4.99;55.40;100456.10;1807328;79;21240;-92
2024/01/01 02:49:52;;;;;;;13.58;8.85;;;;;;;4.84;55.86;100454.23;1807110;79;21328;-92
2024/01/01 02:53:00;;;;;;;22.15;10.00;;;;;;;4.79;56.05;100457.34;1802235;79;21169;-91
2024/01/01 02:56:11;;;;;;;16.95;10.55;;;;;;;4.91;55.95;100457.27;1801886;78;21867;-91
2024/01/01 02:59:19;;;;;;;19.90;12.58;;;;;;;4.92;55.83;100461.69;1802021;79;21299;-92
2024/01/01 03:02:25;;;;;;;23.95;12.05;;;;;;;4.82;56.29;100457.09;1781124;79;21870;-92
2024/01/01 03:05:31;;;;;;;19.55;11.00;;;;;;;4.78;56.92;100461.06;1800435;79;21311;-92
2024/01/01 03:08:37;;;;;;;22.90;11.48;;;;;;;4.76;56.77;100458.14;1800283;79;21304;-92
2024/01/01 03:11:43;;;;;;;24.65;11.80;;;;;;;4.97;56.29;100460.78;1800192;79;21922;-93
2024/01/01 03:14:50;;;;;;;25.30;14.13;;;;;;;4.74;56.77;100462.81;1800295;79;21855;-92
2024/01/01 03:17:58;;;;;;;23.27;12.75;;;;;;;4.80;56.68;100462.30;1775012;79;21347;-93
2024/01/01 03:21:04;;;;;;;26.75;13.72;;;;;;;4.97;56.50;100460.78;1800833;79;21291;-94
2024/01/01 03:24:11;;;;;;;25.75;13.18;;;;;;;4.68;57.55;100450.67;1795980;79;21343;-92
2024/01/01 03:27:19;;;;;;;24.23;13.30;;;;;;;4.81;57.78;100451.31;1798202;79;21291;-92
2024/01/01 03:30:24;;;;;;;22.87;13.25;;;;;;;4.92;57.47;100455.77;1798330;80;21795;-93
2024/01/01 03:33:32;;;;;;;26.50;13.00;;;;;;;4.72;58.19;100448.06;1797825;80;21351;-91
2024/01/01 03:36:39;;;;;;;28.25;13.50;;;;;;;4.74;58.27;100452.83;1794874;80;21327;-92
2024/01/01 03:39:45;;;;;;;24.92;13.53;;;;;;;4.75;58.41;100454.58;1792823;80;21307;-93
2024/01/01 03:42:51;;;;;;;24.75;13.72;;;;;;;4.87;58.23;100458.89;1793276;80;22028;-92
2024/01/01 03:45:58;;;;;;;23.85;12.07;;;;;;;5.08;57.74;100457.95;1792029;80;21836;-92
2024/01/01 03:49:04;;;;;;;26.15;12.88;;;;;;;4.73;58.42;100455.19;1791763;80;21289;-92
2024/01/01 03:52:10;;;;;;;22.73;13.20;;;;;;;4.82;58.00;100453.52;1774042;80;21285;-93
2024/01/01 03:55:17;;;;;;;24.95;11.57;;;;;;;5.02;57.73;100453.09;1761943;80;21292;-92
2024/01/01 03:58:24;;;;;;;28.15;12.40;;;;;;;4.99;57.80;100447.97;1761554;79;21328;-93
2024/01/01 04:01:31;;;;;;;25.72;12.18;;;;;;;4.97;57.32;100448.09;1761934;81;21895;-92
2024/01/01 04:04:39;;;;;;;27.25;12.65;;;;;;;4.96;57.09;100441.45;1761873;81;21347;-92
2024/01/01 04:07:47;;;;;;;24.23;12.37;;;;;;;4.83;57.21;100448.45;1792377;80;21295;-93
2024/01/01 04:10:54;;;;;;;23.65;12.10;;;;;;;4.64;57.56;100442.95;1798361;79;21331;-94
2024/01/01 04:14:01;;;;;;;21.27;11.53;;;;;;;4.61;57.62;100447.66;1798369;80;21208;-91
2024/01/01 04:17:08;;;;;;;22.73;11.85;;;;;;;4.64;57.59;100444.30;1798657;80;21215;-92
2024/01/01 04:20:15;;;;;;;25.15;12.65;;;;;;;4.67;57.68;100438.13;1797135;80;21311;-91
2024/01/01 04:23:20;;;;;;;24.65;11.88;;;;;;;4.76;57.31;100442.73;1760184;81;21328;-92
2024/01/01 04:26:27;;;;;;;20.05;11.05;;;;;;;4.68;57.37;100438.98;1759587;78;21217;-91
2024/01/01 04:29:34;;;;;;;19.02;10.53;;;;;;;4.57;57.86;100436.72;1760553;81;21319;-91
2024/01/01 04:32:41;;;;;;;23.45;11.48;;;;;;;4.41;58.18;100428.70;1759516;81;21309;-93
2024/01/01 04:35:49;;;;;;;20.37;10.75;;;;;;;4.17;59.02;100429.84;1759934;79;21887;-93
2024/01/01 04:38:55;;;;;;;24.90;12.35;;;;;;;4.23;59.29;100429.30;1763275;81;21303;-93
2024/01/01 04:42:01;;;;;;;34.27;14.60;;;;;;;4.44;58.89;100436.08;1770824;80;21229;-92
2024/01/01 04:45:09;;;;;;;22.65;12.20;;;;;;;4.29;59.69;100425.23;1772060;81;21312;-92
2024/01/01 04:48:17;;;;;;;30.35;14.68;;;;;;;4.57;59.63;100427.24;1771977;81;21311;-93
2024/01/01 04:51:25;;;;;;;18.37;9.38;;;;;;;4.79;58.91;100430.25;1780823;78;21350;-92
2024/01/01 04:54:33;;;;;;;28.05;12.73;;;;;;;4.73;59.41;100424.52;1802403;79;21343;-92
2024/01/01 04:57:40;;;;;;;28.95;13.15;;;;;;;4.75;59.35;100427.95;1803607;79;21671;-93
2024/01/01 05:00:46;;;;;;;22.93;12.28;;;;;;;4.83;58.95;100427.63;1803435;79;21300;-91
2024/01/01 05:03:53;;;;;;;31.45;13.65;;;;;;;4.90;58.70;100429.31;1803685;79;21303;-92
2024/01/01 05:06:59;;;;;;;21.82;11.85;;;;;;;4.90;58.62;100423.89;1798391;79;21315;-92
2024/01/01 05:10:05;;;;;;;25.35;12.43;;;;;;;4.77;58.80;100429.54;1793384;78;21291;-93
2024/01/01 05:13:11;;;;;;;25.45;12.58;;;;;;;4.75;58.77;100422.06;1791766;80;21241;-93
2024/01/01 05:16:19;;;;;;;26.42;12.80;;;;;;;4.83;58.30;100421.35;1792004;80;21307;-93
2024/01/01 05:19:25;;;;;;;37.93;15.75;;;;;;;4.72;58.39;100425.02;1791795;80;21276;-93
2024/01/01 05:22:31;;;;;;;37.38;21.30;;;;;;;4.64;58.49;100431.61;1796502;80;21530;-92
2024/01/01 05:25:40;;;;;;;35.68;21.12;;;;;;;4.73;58.37;100434.87;1796518;79;21339;-92
2024/01/01 05:28:49;;;;;;;39.73;22.65;;;;;;;4.72;58.74;100433.16;1798573;80;21335;-93
2024/01/01 05:32:01;;;;;;;33.92;15.68;;;;;;;4.76;58.83;100435.95;1798504;79;22399;-93
2024/01/01 05:35:08;;;;;;;28.07;15.85;;;;;;;4.95;58.77;100430.26;1797067;80;21315;-94
2024/01/01 05:38:14;;;;;;;43.63;18.60;;;;;;;4.93;58.44;100439.01;1772011;81;21259;-93
2024/01/01 05:41:21;;;;;;;39.23;19.35;;;;;;;4.99;58.25;100442.55;1770755;80;21390;-94
2024/01/01 05:44:30;;;;;;;42.65;20.37;;;;;;;4.80;58.65;100440.12;1771124;81;21355;-94
2024/01/01 05:47:42;;;;;;;37.23;18.98;;;;;;;4.99;58.18;100433.91;1771674;79;21315;-93
2024/01/01 05:50:51;;;;;;;28.92;14.73;;;;;;;5.07;58.11;100439.98;1771211;80;21327;-92
2024/01/01 05:54:02;;;;;;;37.73;17.90;;;;;;;5.26;57.90;100430.54;1796884;80;21378;-93
2024/01/01 05:57:09;;;;;;;35.95;15.15;;;;;;;5.45;57.49;100430.22;1798563;79;21324;-94
2024/01/01 06:00:19;;;;;;;29.70;14.60;;;;;;;5.63;56.89;100428.53;1797985;80;21339;-94
2024/01/01 06:03:26;;;;;;;28.02;13.13;;;;;;;5.46;56.95;100425.15;1798054;80;21165;-94
2024/01/01 06:06:35;;;;;;;31.25;14.87;;;;;;;5.31;57.58;100425.55;1795513;80;21213;-92
2024/01/01 06:09:42;;;;;;;24.52;12.40;;;;;;;5.20;57.90;100421.61;1788075;80;21293;-94
2024/01/01 06:12:50;;;;;;;26.30;12.90;;;;;;;5.25;57.94;100415.77;1787178;79;21364;-94
2024/01/01 06:15:58;;;;;;;21.80;11.43;;;;;;;5.24;58.04;100421.70;1786370;80;21372;-93
2024/01/01 06:19:07;;;;;;;21.68;12.63;;;;;;;5.30;57.88;100413.00;1787332;80;21284;-92
2024/01/01 06:22:13;;;;;;;19.20;10.58;;;;;;;5.46;57.65;100405.69;1800162;79;21301;-94
2024/01/01 06:25:20;;;;;;;22.62;12.85;;;;;;;5.55;57.50;100402.59;1806999;79;21235;-92
2024/01/01 06:28:27;;;;;;;25.00;12.80;;;;;;;5.61;57.22;100400.70;1807236;79;21320;-93
2024/01/01 06:31:34;;;;;;;25.37;13.35;;;;;;;5.72;57.35;100397.83;1807382;77;21339;-93
2024/01/01 06:34:41;;;;;;;22.95;12.78;;;;;;;5.68;57.33;100395.55;1807565;79;21323;-93
2024/01/01 06:37:48;;;;;;;27.22;12.98;;;;;;;5.73;57.65;100398.18;1777361;79;21914;-92
2024/01/01 06:40:56;;;;;;;19.27;10.90;;;;;;;5.79;57.84;100396.27;1771046;81;21343;-93
2024/01/01 06:44:02;;;;;;;20.23;10.88;;;;;;;5.78;58.15;100396.39;1770020;81;21351;-93
2024/01/01 06:47:10;;;;;;;21.33;10.40;;;;;;;5.93;57.97;100393.66;1771271;81;21657;-93
2024/01/01 06:50:17;;;;;;;18.10;10.20;;;;;;;6.09;57.77;100391.69;1771707;80;21327;-94
2024/01/01 06:53:24;;;;;;;16.82;9.95;;;;;;;6.12;57.80;100396.84;1787264;80;21342;-93
2024/01/01 06:56:31;;;;;;;20.50;10.95;;;;;;;6.14;58.01;100400.26;1787239;80;21329;-93
2024/01/01 06:59:38;;;;;;;19.20;9.58;;;;;;;6.14;58.55;100396.19;1787432;80;21241;-93
2024/01/01 07:02:45;;;;;;;25.77;11.40;;;;;;;6.33;58.57;100400.21;1787413;80;21339;-94
2024/01/01 07:05:51;;;;;;;20.05;10.98;;;;;;;6.61;58.07;100400.27;1788186;79;21221;-92
2024/01/01 07:08:58;;;;;;;20.60;9.78;;;;;;;6.86;57.60;100390.58;1803278;79;21848;-93
2024/01/01 07:12:05;;;;;;;20.55;9.05;;;;;;;7.13;56.82;100391.08;1801712;79;21303;-92
2024/01/01 07:15:13;;;;;;;25.97;9.63;;;;;;;7.06;56.94;100391.36;1802035;79;21304;-93
2024/01/01 07:18:20;;;;;;;18.48;9.63;;;;;;;7.21;56.63;100392.55;1803510;79;21304;-93
2024/01/01 07:21:30;;;;;;;21.10;11.50;;;;;;;7.33;56.48;100395.39;1792363;79;21276;-94
2024/01/01 07:24:37;;;;;;;27.40;12.95;;;;;;;7.42;56.35;100387.66;1764254;81;21326;-93
2024/01/01 07:27:43;;;;;;;18.12;10.13;;;;;;;7.60;56.30;100389.55;1763100;79;21201;-92
2024/01/01 07:30:50;;;;;;;20.97;9.95;;;;;;;7.60;56.18;100393.63;1763682;79;21788;-93
2024/01/01 07:33:58;;;;;;;18.02;9.90;;;;;;;7.88;55.68;100393.89;1764402;81;21317;-94
2024/01/01 07:37:04;;;;;;;22.13;10.30;;;;;;;7.91;55.75;100393.59;1765750;79;21304;-93
2024/01/01 07:40:14;;;;;;;18.02;10.35;;;;;;;7.85;56.02;100392.83;1764541;81;21347;-93
2024/01/01 07:43:22;;;;;;;19.45;10.80;;;;;;;7.95;56.01;100388.66;1766085;79;21305;-93
2024/01/01 07:46:29;;;;;;;18.10;8.48;;;;;;;7.97;56.12;100400.27;1765615;81;21347;-94
2024/01/01 07:49:35;;;;;;;24.00;9.80;;;;;;;8.26;55.68;100407.30;1765722;81;21329;-93
2024/01/01 07:52:42;;;;;;;20.43;9.58;;;;;;;8.30;55.73;100408.19;1783567;78;21308;-94
2024/01/01 07:55:48;;;;;;;24.50;10.32;;;;;;;8.57;55.53;100405.01;1787088;80;21332;-93
2024/01/01 07:58:55;;;;;;;14.25;7.60;;;;;;;8.52;55.82;100406.00;1788354;80;21300;-92
2024/01/01 08:02:01;;;;;;;16.87;8.93;;;;;;;8.72;55.94;100406.11;1772560;80;21320;-91
2024/01/01 08:05:08;;;;;;;14.23;7.20;;;;;;;8.79;55.75;100390.79;1787522;80;21276;-93
2024/01/01 08:08:17;;;;;;;15.03;6.92;;;;;;;8.87;55.76;100394.08;1788207;79;21299;-93
2024/01/01 08:11:24;;;;;;;11.38;5.90;;;;;;;8.99;55.32;100387.80;1787871;80;21304;-93
2024/01/01 08:14:31;;;;;;;11.85;6.10;;;;;;;9.02;55.44;100389.70;1786031;79;21331;-93
2024/01/01 08:17:38;;;;;;;13.30;6.92;;;;;;;9.22;55.25;100382.09;1785986;80;21780;-93
2024/01/01 08:20:46;;;;;;;11.10;6.50;;;;;;;9.26;55.27;100379.89;1786012;80;21245;-94
2024/01/01 08:23:53;;;;;;;14.95;6.47;;;;;;;9.13;55.55;100368.11;1786631;80;21283;-93
2024/01/01 08:27:04;;;;;;;18.70;7.17;;;;;;;9.30;55.40;100379.39;1787790;80;21312;-93
2024/01/01 08:30:13;;;;;;;12.00;6.37;;;;;;;9.48;55.41;100369.20;1787858;79;21304;-93
2024/01/01 08:33:20;;;;;;;14.40;6.58;;;;;;;9.70;55.09;100372.33;1787576;80;21296;-95
2024/01/01 08:36:28;;;;;;;15.43;7.67;;;;;;;9.84;54.63;100368.06;1789232;80;21256;-93
2024/01/01 08:39:35;;;;;;;10.85;5.67;;;;;;;9.86;54.73;100363.27;1771096;81;21328;-94
2024/01/01 08:42:42;;;;;;;9.70;5.35;;;;;;;9.99;54.63;100363.11;1770476;81;21845;-93
2024/01/01 08:45:49;;;;;;;12.63;6.20;;;;;;;9.70;55.31;100358.66;1769600;80;21329;-94
2024/01/01 08:48:55;;;;;;;13.03;6.20;;;;;;;10.06;54.79;100365.14;1769995;81;21348;-93
2024/01/01 08:52:03;;;;;;;11.95;6.47;;;;;;;10.22;54.34;100356.43;1783317;80;22038;-93
2024/01/01 08:55:09;;;;;;;9.33;6.37;;;;;;;9.95;55.20;100356.27;1795855;79;21343;-92
2024/01/01 08:58:16;;;;;;;12.55;6.90;;;;;;;10.17;54.97;100349.78;1795008;80;21299;-93
2024/01/01 09:01:23;;;;;;;11.12;6.53;;;;;;;10.19;54.55;100347.20;1795584;79;21315;-93
2024/01/01 09:04:29;;;;;;;10.60;5.85;;;;;;;10.20;54.53;100344.80;1795511;80;21320;-93
2024/01/01 09:07:36;;;;;;;14.50;7.08;;;;;;;10.31;54.47;100342.27;1770401;80;21371;-91
2024/01/01 09:10:42;;;;;;;15.03;6.53;;;;;;;10.52;53.88;100334.00;1762476;79;21331;-95
2024/01/01 09:13:48;;;;;;;11.40;5.90;;;;;;;10.88;53.23;100330.30;1775649;80;21165;-92
2024/01/01 09:16:58;;;;;;;11.60;5.70;;;;;;;10.86;53.15;100323.61;1774431;79;21909;-92
2024/01/01 09:20:04;;;;;;;9.63;5.50;;;;;;;10.70;53.41;100318.22;1710059;84;21320;-93
2024/01/01 09:23:11;;;;;;;11.40;6.00;;;;;;;10.73;53.61;100318.73;1769151;81;21877;-92
2024/01/01 09:26:20;;;;;;;11.53;6.00;;;;;;;10.85;53.64;100315.07;1769217;81;21271;-93
2024/01/01 09:29:27;;;;;;;14.93;7.10;;;;;;;11.14;52.90;100310.81;1771754;80;21900;-93
2024/01/01 09:32:33;;;;;;;13.00;5.95;;;;;;;11.12;52.83;100304.16;1778248;80;21854;-91
2024/01/01 09:35:42;;;;;;;16.70;5.97;;;;;;;11.37;52.37;100299.89;1777549;80;21385;-93
2024/01/01 09:38:48;;;;;;;10.08;5.47;;;;;;;11.16;52.46;100293.71;1777232;80;21850;-92
2024/01/01 09:41:55;;;;;;;9.50;5.47;;;;;;;11.19;52.21;100290.59;1753064;80;21378;-92
2024/01/01 09:45:03;;;;;;;10.70;6.22;;;;;;;11.17;52.25;100285.31;1778182;80;21322;-93
2024/01/01 09:48:09;;;;;;;11.40;5.85;;;;;;;11.02;52.51;100275.32;1778341;80;21308;-94
2024/01/01 09:51:16;;;;;;;10.13;5.65;;;;;;;11.40;51.55;100274.89;1778310;80;21300;-93
2024/01/01 09:54:23;;;;;;;10.48;6.25;;;;;;;11.20;52.11;100262.20;1777182;80;21236;-93
2024/01/01 09:57:30;;;;;;;9.08;6.08;;;;;;;11.40;51.73;100257.94;1776639;79;21831;-93
2024/01/01 10:00:36;;;;;;;9.70;5.78;;;;;;;11.50;51.49;100255.80;1776777;80;21296;-93
2024/01/01 10:03:43;;;;;;;15.45;5.58;;;;;;;11.59;51.36;100250.27;1777864;79;21513;-93
2024/01/01 10:06:49;;;;;;;10.00;5.45;;;;;;;11.41;51.79;100244.58;1787618;79;21879;-94
2024/01/01 10:09:55;;;;;;;14.15;6.22;;;;;;;11.42;51.98;100240.80;1759620;79;21232;-92
2024/01/01 10:13:15;;;;;;;13.35;6.62;;;;;;;11.28;52.18;100240.22;1799957;79;21318;-93
2024/01/01 10:16:34;;;;;;;10.10;6.22;;;;;;;11.40;51.96;100233.81;1781721;79;22254;-93
2024/01/01 10:19:59;;;;;;;9.63;5.20;;;;;;;11.50;51.60;100227.04;1801752;79;21861;-92
2024/01/01 10:23:06;;;;;;;13.18;6.28;;;;;;;11.13;52.39;100218.78;1800069;79;21312;-94
2024/01/01 10:26:14;;;;;;;11.25;6.17;;;;;;;11.15;52.81;100212.59;1801476;79;21350;-92
2024/01/01 10:29:22;;;;;;;10.88;5.83;;;;;;;11.15;52.93;100201.64;1801873;79;21514;-93
2024/01/01 10:32:28;;;;;;;14.55;6.22;;;;;;;11.32;52.72;100195.02;1757673;81;21320;-93
2024/01/01 10:35:35;;;;;;;10.80;6.10;;;;;;;11.33;52.30;100181.65;1757700;81;21233;-93
2024/01/01 10:38:42;;;;;;;12.03;6.58;;;;;;;11.37;52.68;100187.09;1738006;81;21213;-92
2024/01/01 10:41:49;;;;;;;11.18;6.47;;;;;;;11.35;52.75;100175.48;1757699;81;21331;-92
2024/01/01 10:44:56;;;;;;;12.70;6.53;;;;;;;11.85;52.15;100172.61;1738442;81;21316;-93
2024/01/01 10:48:04;;;;;;;11.55;6.45;;;;;;;11.72;52.64;100162.81;1757827;81;21858;-92
2024/01/01 10:51:28;;;;;;;13.45;6.05;;;;;;;12.13;51.55;100160.99;1759085;78;22278;-92
2024/01/01 10:54:41;;;;;;;11.97;6.22;;;;;;;12.22;50.84;100150.25;1758576;81;21355;-93
2024/01/01 10:58:33;;;;;;;12.20;7.00;;;;;;;12.49;49.97;100151.45;1758215;81;21363;-93
2024/01/01 11:01:35;;;;;;;12.03;6.65;;;;;;;12.83;49.22;100144.44;1759148;78;21276;-92
2024/01/01 11:04:29;;;;;;;16.87;7.05;;;;;;;12.30;50.12;100129.59;1759362;81;22496;-94
2024/01/01 11:08:02;;;;;;;10.72;6.08;;;;;;;12.31;50.00;100131.80;1764794;78;21323;-93
2024/01/01 11:11:09;;;;;;;13.10;6.67;;;;;;;12.34;50.04;100124.05;1766151;78;21348;-93
2024/01/01 11:14:17;;;;;;;14.00;6.70;;;;;;;12.50;49.62;100118.32;1766117;81;21193;-93
2024/01/01 11:17:26;;;;;;;15.38;6.62;;;;;;;12.46;49.63;100114.27;1765757;78;21256;-92
2024/01/01 11:21:02;;;;;;;10.25;6.42;;;;;;;12.75;49.08;100107.85;1725494;81;21671;-94
2024/01/01 11:24:07;;;;;;;11.85;5.92;;;;;;;12.57;49.43;100103.33;1767319;81;21319;-92
2024/01/01 11:27:39;;;;;;;12.73;7.45;;;;;;;12.97;48.53;100091.36;1767035;78;21339;-93
2024/01/01 11:30:48;;;;;;;8.15;4.78;;;;;;;13.00;48.62;100084.12;1744844;79;21307;-92
2024/01/01 11:34:06;;;;;;;12.25;6.17;;;;;;;13.17;48.15;100079.17;1782447;77;21358;-92
2024/01/01 11:37:12;;;;;;;9.53;5.78;;;;;;;13.19;48.13;100071.60;1782696;79;21252;-93
2024/01/01 11:40:20;;;;;;;13.98;6.33;;;;;;;12.98;48.62;100078.80;1788243;80;21184;-92
2024/01/01 11:43:29;;;;;;;9.70;6.17;;;;;;;13.12;48.42;100070.16;1788563;79;21215;-92
2024/01/01 11:46:38;;;;;;;10.58;6.37;;;;;;;13.16;48.56;100070.62;1773806;80;21322;-92
2024/01/01 11:49:44;;;;;;;12.68;6.60;;;;;;;13.19;48.58;100068.86;1787350;80;21770;-92
2024/01/01 11:52:52;;;;;;;11.43;6.45;;;;;;;13.06;49.05;100072.33;1785788;79;21196;-93
2024/01/01 11:56:00;;;;;;;10.28;6.05;;;;;;;13.21;48.94;100049.74;1718525;83;21358;-92
2024/01/01 11:59:07;;;;;;;15.53;6.25;;;;;;;13.34;48.68;100053.67;1747692;81;21209;-92
2024/01/01 12:02:14;;;;;;;13.15;6.28;;;;;;;13.28;48.56;100038.85;1747407;82;21164;-92
2024/01/01 12:05:20;;;;;;;10.15;5.35;;;;;;;13.12;48.86;100033.09;1749090;81;21195;-93
2024/01/01 12:08:26;;;;;;;10.23;6.10;;;;;;;13.12;48.74;100031.71;1741767;82;21365;-92
2024/01/01 12:11:32;;;;;;;12.03;6.30;;;;;;;13.21;48.57;100031.05;1739303;82;21380;-93
2024/01/01 12:14:39;;;;;;;9.10;5.83;;;;;;;13.25;48.63;100032.38;1739473;81;21309;-92
2024/01/01 12:17:55;;;;;;;8.80;5.80;;;;;;;13.25;48.82;100029.10;1739272;82;21384;-92
2024/01/01 12:21:05;;;;;;;12.03;6.28;;;;;;;13.43;48.52;100027.22;1740885;81;21321;-92
2024/01/01 12:24:13;;;;;;;15.10;6.72;;;;;;;13.00;49.43;100016.33;1738854;82;21286;-92
2024/01/01 12:27:22;;;;;;;15.85;7.28;;;;;;;13.27;49.08;100014.66;1718906;82;21326;-93
2024/01/01 12:30:34;;;;;;;11.03;6.85;;;;;;;13.27;49.12;100011.07;1740745;82;21301;-92
2024/01/01 12:33:41;;;;;;;11.97;6.80;;;;;;;13.09;49.52;100009.32;1733347;82;21372;-92
2024/01/01 12:36:49;;;;;;;11.48;7.03;;;;;;;13.18;49.53;100005.38;1733620;82;21884;-94
2024/01/01 12:39:55;;;;;;;14.25;7.42;;;;;;;13.18;49.76;100004.00;1733597;82;21388;-92
2024/01/01 12:43:02;;;;;;;16.62;8.35;;;;;;;13.35;49.60;100001.27;1733392;82;21308;-93
2024/01/01 12:46:08;;;;;;;17.73;8.33;;;;;;;13.15;50.24;99991.50;1734767;82;21230;-94
2024/01/01 12:49:14;;;;;;;12.00;7.12;;;;;;;13.03;50.64;99981.62;1734067;82;21254;-93
2024/01/01 12:52:21;;;;;;;10.68;7.15;;;;;;;13.09;50.98;99984.61;1734597;81;21317;-94
2024/01/01 12:55:28;;;;;;;14.28;8.58;;;;;;;13.24;50.83;99992.23;1734390;82;21345;-93
2024/01/01 12:58:35;;;;;;;10.78;7.85;;;;;;;13.26;50.94;99975.02;1734344;82;21321;-94
2024/01/01 13:01:41;;;;;;;14.13;8.78;;;;;;;13.37;51.01;99975.84;1733183;82;21384;-93
2024/01/01 13:04:48;;;;;;;13.13;8.30;;;;;;;13.39;51.17;99974.25;1734513;82;21302;-92
2024/01/01 13:07:54;;;;;;;19.73;9.78;;;;;;;13.34;51.34;99959.75;1733122;82;21183;-93
2024/01/01 13:11:00;;;;;;;15.00;8.50;;;;;;;13.10;52.12;99961.59;1734736;82;21333;-95
2024/01/01 13:14:06;;;;;;;14.25;9.60;;;;;;;12.89;53.02;99956.98;1734768;82;21352;-94
2024/01/01 13:17:12;;;;;;;20.02;9.90;;;;;;;13.33;52.22;99947.08;1733375;82;21806;-93
2024/01/01 13:20:18;;;;;;;17.15;10.13;;;;;;;12.94;52.98;99940.27;1733620;82;21270;-94
2024/01/01 13:23:24;;;;;;;14.58;10.25;;;;;;;12.92;53.95;99938.75;1733739;81;21369;-94
2024/01/01 13:26:31;;;;;;;16.82;10.75;;;;;;;12.97;53.78;99936.25;1733454;82;22699;-93
2024/01/01 13:29:37;;;;;;;20.30;10.58;;;;;;;12.85;54.26;99940.09;1733559;82;21289;-94
2024/01/01 13:32:43;;;;;;;19.73;11.43;;;;;;;12.89;54.21;99934.53;1735220;82;21861;-93
2024/01/01 13:35:51;;;;;;;15.58;10.18;;;;;;;12.91;54.34;99941.19;1735788;81;21927;-93
2024/01/01 13:38:57;;;;;;;15.48;10.45;;;;;;;12.94;54.25;99932.56;1771321;80;21350;-93
2024/01/01 13:42:03;;;;;;;18.37;10.40;;;;;;;12.90;54.35;99930.73;1770266;81;21311;-94
2024/01/01 13:45:12;;;;;;;18.77;10.38;;;;;;;12.82;54.77;99928.66;1771736;79;21204;-94
2024/01/01 13:48:19;;;;;;;14.25;9.93;;;;;;;12.49;55.51;99934.73;1771769;80;21197;-94
2024/01/01 13:51:26;;;;;;;19.37;10.40;;;;;;;12.63;55.63;99927.46;1771624;81;21287;-92
2024/01/01 13:54:33;;;;;;;17.42;10.48;;;;;;;12.68;55.48;99929.92;1769699;79;21649;-94
2024/01/01 13:57:40;;;;;;;16.82;10.28;;;;;;;12.64;55.57;99927.25;1769590;81;21366;-93
2024/01/01 14:00:48;;;;;;;16.40;10.60;;;;;;;12.74;55.34;99928.27;1769962;79;21949;-94
2024/01/01 14:03:55;;;;;;;16.85;10.40;;;;;;;12.58;55.85;99916.23;1749138;79;21311;-94
2024/01/01 14:07:01;;;;;;;16.97;10.13;;;;;;;12.26;56.57;99917.96;1771717;81;21351;-92
2024/01/01 14:10:07;;;;;;;25.82;12.18;;;;;;;12.33;56.61;99911.68;1773456;79;21335;-93
2024/01/01 14:13:13;;;;;;;21.02;12.58;;;;;;;12.12;57.14;99911.18;1751824;81;21359;-93
2024/01/01 14:16:20;;;;;;;16.93;11.75;;;;;;;12.08;57.50;99918.09;1773452;79;21846;-92
2024/01/01 14:19:26;;;;;;;16.60;10.95;;;;;;;12.09;57.60;99906.95;1774317;81;21385;-93
2024/01/01 14:22:36;;;;;;;17.35;11.22;;;;;;;12.07;57.53;99906.81;1745727;81;21302;-93
2024/01/01 14:25:40;;;;;;;18.80;11.15;;;;;;;12.25;57.14;99903.09;1735183;82;22390;-93